sensor_id;sensor_type;location;lat;lon;timestamp;P1;durP1;ratioP1;P2;durP2;ratioP2
35496;SDS011;21609;49.298;6.844;2022-11-04T00:01:45;1.13;;;1.02;;
35496;SDS011;21609;49.298;6.844;2022-11-04T00:04:12;0.80;;;0.80;;
35496;SDS011;21609;49.298;6.844;2022-11-04T00:06:39;0.95;;;0.85;;
35496;SDS011;21609;49.298;6.844;2022-11-04T00:09:06;1.20;;;0.90;;
35496;SDS011;21609;49.298;6.844;2022-11-04T00:11:32;2.85;;;0.88;;
35496;SDS011;21609;49.298;6.844;2022-11-04T00:14:17;1.90;;;1.20;;
35496;SDS011;21609;49.298;6.844;2022-11-04T00:16:43;1.00;;;0.90;;
35496;SDS011;21609;49.298;6.844;2022-11-04T00:19:27;1.67;;;1.10;;
35496;SDS011;21609;49.298;6.844;2022-11-04T00:21:53;1.63;;;1.08;;
35496;SDS011;21609;49.298;6.844;2022-11-04T00:24:38;1.00;;;1.00;;
35496;SDS011;21609;49.298;6.844;2022-11-04T00:27:10;1.08;;;0.98;;
35496;SDS011;21609;49.298;6.844;2022-11-04T00:29:55;0.82;;;0.82;;
35496;SDS011;21609;49.298;6.844;2022-11-04T00:32:21;0.77;;;0.70;;
35496;SDS011;21609;49.298;6.844;2022-11-04T00:35:05;1.08;;;0.70;;
35496;SDS011;21609;49.298;6.844;2022-11-04T00:37:34;0.85;;;0.85;;
35496;SDS011;21609;49.298;6.844;2022-11-04T00:40:01;2.05;;;0.98;;
35496;SDS011;21609;49.298;6.844;2022-11-04T00:42:27;3.03;;;0.95;;
35496;SDS011;21609;49.298;6.844;2022-11-04T00:44:53;1.25;;;0.85;;
35496;SDS011;21609;49.298;6.844;2022-11-04T00:47:18;1.30;;;1.15;;
35496;SDS011;21609;49.298;6.844;2022-11-04T00:49:44;1.45;;;1.30;;
35496;SDS011;21609;49.298;6.844;2022-11-04T00:52:10;1.40;;;1.23;;
35496;SDS011;21609;49.298;6.844;2022-11-04T00:54:35;1.30;;;1.20;;
35496;SDS011;21609;49.298;6.844;2022-11-04T00:57:01;1.30;;;1.05;;
35496;SDS011;21609;49.298;6.844;2022-11-04T00:59:26;1.13;;;1.02;;
35496;SDS011;21609;49.298;6.844;2022-11-04T01:01:52;1.10;;;1.00;;
35496;SDS011;21609;49.298;6.844;2022-11-04T01:04:17;1.15;;;1.05;;
35496;SDS011;21609;49.298;6.844;2022-11-04T01:06:43;0.93;;;0.85;;
35496;SDS011;21609;49.298;6.844;2022-11-04T01:09:09;1.05;;;0.95;;
35496;SDS011;21609;49.298;6.844;2022-11-04T01:11:36;1.13;;;0.98;;
35496;SDS011;21609;49.298;6.844;2022-11-04T01:14:02;0.82;;;0.82;;
35496;SDS011;21609;49.298;6.844;2022-11-04T01:16:28;1.67;;;0.93;;
35496;SDS011;21609;49.298;6.844;2022-11-04T01:18:54;1.52;;;1.00;;
35496;SDS011;21609;49.298;6.844;2022-11-04T01:21:20;1.40;;;1.30;;
35496;SDS011;21609;49.298;6.844;2022-11-04T01:23:45;1.00;;;0.77;;
35496;SDS011;21609;49.298;6.844;2022-11-04T01:26:12;0.75;;;0.75;;
35496;SDS011;21609;49.298;6.844;2022-11-04T01:28:40;1.17;;;1.08;;
35496;SDS011;21609;49.298;6.844;2022-11-04T01:33:36;2.97;;;0.82;;
35496;SDS011;21609;49.298;6.844;2022-11-04T01:36:02;1.33;;;0.82;;
35496;SDS011;21609;49.298;6.844;2022-11-04T01:38:29;1.63;;;0.82;;
35496;SDS011;21609;49.298;6.844;2022-11-04T01:40:54;1.00;;;0.90;;
35496;SDS011;21609;49.298;6.844;2022-11-04T01:43:21;0.82;;;0.80;;
35496;SDS011;21609;49.298;6.844;2022-11-04T01:45:48;0.95;;;0.90;;
35496;SDS011;21609;49.298;6.844;2022-11-04T01:48:21;1.27;;;0.85;;
35496;SDS011;21609;49.298;6.844;2022-11-04T01:50:50;0.70;;;0.70;;
35496;SDS011;21609;49.298;6.844;2022-11-04T01:53:20;0.70;;;0.70;;
35496;SDS011;21609;49.298;6.844;2022-11-04T01:56:01;1.08;;;0.98;;
35496;SDS011;21609;49.298;6.844;2022-11-04T01:58:35;2.10;;;0.75;;
35496;SDS011;21609;49.298;6.844;2022-11-04T02:01:04;1.15;;;1.05;;
35496;SDS011;21609;49.298;6.844;2022-11-04T02:06:48;0.60;;;0.60;;
35496;SDS011;21609;49.298;6.844;2022-11-04T02:09:15;0.93;;;0.80;;
35496;SDS011;21609;49.298;6.844;2022-11-04T02:11:42;1.10;;;0.80;;
35496;SDS011;21609;49.298;6.844;2022-11-04T02:14:26;1.40;;;1.00;;
35496;SDS011;21609;49.298;6.844;2022-11-04T02:16:52;1.05;;;0.93;;
35496;SDS011;21609;49.298;6.844;2022-11-04T02:30:45;1.17;;;1.08;;
35496;SDS011;21609;49.298;6.844;2022-11-04T02:33:39;1.00;;;0.80;;
35496;SDS011;21609;49.298;6.844;2022-11-04T02:38:59;1.50;;;0.88;;
35496;SDS011;21609;49.298;6.844;2022-11-04T02:46:53;0.77;;;0.77;;
35496;SDS011;21609;49.298;6.844;2022-11-04T02:49:49;1.67;;;0.88;;
35496;SDS011;21609;49.298;6.844;2022-11-04T02:52:20;0.77;;;0.77;;
35496;SDS011;21609;49.298;6.844;2022-11-04T02:57:31;0.80;;;0.70;;
35496;SDS011;21609;49.298;6.844;2022-11-04T03:00:00;1.33;;;0.65;;
35496;SDS011;21609;49.298;6.844;2022-11-04T03:02:32;1.10;;;0.82;;
35496;SDS011;21609;49.298;6.844;2022-11-04T03:05:03;2.35;;;0.95;;
35496;SDS011;21609;49.298;6.844;2022-11-04T03:07:32;0.90;;;0.70;;
35496;SDS011;21609;49.298;6.844;2022-11-04T03:10:01;1.10;;;0.77;;
35496;SDS011;21609;49.298;6.844;2022-11-04T03:12:49;0.90;;;0.88;;
35496;SDS011;21609;49.298;6.844;2022-11-04T03:15:26;1.02;;;0.93;;
35496;SDS011;21609;49.298;6.844;2022-11-04T03:18:14;1.10;;;0.90;;
35496;SDS011;21609;49.298;6.844;2022-11-04T03:20:47;0.98;;;0.75;;
35496;SDS011;21609;49.298;6.844;2022-11-04T03:23:15;1.02;;;0.93;;
35496;SDS011;21609;49.298;6.844;2022-11-04T03:25:43;1.40;;;0.73;;
35496;SDS011;21609;49.298;6.844;2022-11-04T03:30:42;1.20;;;1.02;;
35496;SDS011;21609;49.298;6.844;2022-11-04T03:35:58;0.80;;;0.70;;
35496;SDS011;21609;49.298;6.844;2022-11-04T03:38:24;0.73;;;0.70;;
35496;SDS011;21609;49.298;6.844;2022-11-04T03:40:50;0.90;;;0.80;;
35496;SDS011;21609;49.298;6.844;2022-11-04T03:43:20;0.70;;;0.70;;
35496;SDS011;21609;49.298;6.844;2022-11-04T03:45:49;0.80;;;0.80;;
35496;SDS011;21609;49.298;6.844;2022-11-04T03:48:15;1.00;;;0.77;;
35496;SDS011;21609;49.298;6.844;2022-11-04T03:50:42;1.52;;;0.63;;
35496;SDS011;21609;49.298;6.844;2022-11-04T03:53:12;1.63;;;0.75;;
35496;SDS011;21609;49.298;6.844;2022-11-04T03:55:47;0.80;;;0.80;;
35496;SDS011;21609;49.298;6.844;2022-11-04T04:03:43;0.75;;;0.60;;
35496;SDS011;21609;49.298;6.844;2022-11-04T04:06:26;0.77;;;0.60;;
35496;SDS011;21609;49.298;6.844;2022-11-04T04:08:58;0.80;;;0.75;;
35496;SDS011;21609;49.298;6.844;2022-11-04T04:11:50;0.80;;;0.80;;
35496;SDS011;21609;49.298;6.844;2022-11-04T04:17:21;0.65;;;0.65;;
35496;SDS011;21609;49.298;6.844;2022-11-04T04:19:55;1.25;;;0.80;;
35496;SDS011;21609;49.298;6.844;2022-11-04T04:22:28;1.08;;;0.80;;
35496;SDS011;21609;49.298;6.844;2022-11-04T04:24:58;0.85;;;0.70;;
35496;SDS011;21609;49.298;6.844;2022-11-04T04:27:46;0.75;;;0.75;;
35496;SDS011;21609;49.298;6.844;2022-11-04T04:30:14;0.63;;;0.60;;
35496;SDS011;21609;49.298;6.844;2022-11-04T04:35:39;0.95;;;0.70;;
35496;SDS011;21609;49.298;6.844;2022-11-04T04:41:04;0.55;;;0.55;;
35496;SDS011;21609;49.298;6.844;2022-11-04T04:43:53;1.08;;;0.70;;
35496;SDS011;21609;49.298;6.844;2022-11-04T04:46:37;0.60;;;0.50;;
35496;SDS011;21609;49.298;6.844;2022-11-04T04:49:05;0.70;;;0.70;;
35496;SDS011;21609;49.298;6.844;2022-11-04T04:51:33;0.88;;;0.70;;
35496;SDS011;21609;49.298;6.844;2022-11-04T04:56:29;0.70;;;0.70;;
35496;SDS011;21609;49.298;6.844;2022-11-04T04:58:54;0.70;;;0.60;;
35496;SDS011;21609;49.298;6.844;2022-11-04T05:01:20;1.58;;;0.88;;
35496;SDS011;21609;49.298;6.844;2022-11-04T05:03:45;0.75;;;0.60;;
35496;SDS011;21609;49.298;6.844;2022-11-04T05:06:11;0.52;;;0.50;;
35496;SDS011;21609;49.298;6.844;2022-11-04T05:08:36;0.52;;;0.52;;
35496;SDS011;21609;49.298;6.844;2022-11-04T05:11:02;0.50;;;0.50;;
35496;SDS011;21609;49.298;6.844;2022-11-04T05:13:28;0.68;;;0.68;;
35496;SDS011;21609;49.298;6.844;2022-11-04T05:16:01;0.70;;;0.70;;
35496;SDS011;21609;49.298;6.844;2022-11-04T05:18:28;0.85;;;0.60;;
35496;SDS011;21609;49.298;6.844;2022-11-04T05:20:54;1.05;;;0.75;;
35496;SDS011;21609;49.298;6.844;2022-11-04T05:23:19;0.77;;;0.40;;
35496;SDS011;21609;49.298;6.844;2022-11-04T05:25:45;0.80;;;0.80;;
35496;SDS011;21609;49.298;6.844;2022-11-04T05:28:11;0.57;;;0.57;;
35496;SDS011;21609;49.298;6.844;2022-11-04T05:30:37;1.27;;;0.55;;
35496;SDS011;21609;49.298;6.844;2022-11-04T05:33:02;0.40;;;0.40;;
35496;SDS011;21609;49.298;6.844;2022-11-04T05:35:28;0.82;;;0.70;;
35496;SDS011;21609;49.298;6.844;2022-11-04T05:37:54;0.80;;;0.60;;
35496;SDS011;21609;49.298;6.844;2022-11-04T05:40:20;2.35;;;0.88;;
35496;SDS011;21609;49.298;6.844;2022-11-04T05:42:46;1.00;;;0.65;;
35496;SDS011;21609;49.298;6.844;2022-11-04T05:45:12;0.60;;;0.60;;
35496;SDS011;21609;49.298;6.844;2022-11-04T05:47:38;0.70;;;0.70;;
35496;SDS011;21609;49.298;6.844;2022-11-04T05:50:03;0.60;;;0.60;;
35496;SDS011;21609;49.298;6.844;2022-11-04T05:52:29;0.70;;;0.60;;
35496;SDS011;21609;49.298;6.844;2022-11-04T05:54:55;0.50;;;0.50;;
35496;SDS011;21609;49.298;6.844;2022-11-04T05:57:20;0.47;;;0.47;;
35496;SDS011;21609;49.298;6.844;2022-11-04T05:59:46;0.77;;;0.68;;
35496;SDS011;21609;49.298;6.844;2022-11-04T06:02:12;0.47;;;0.47;;
35496;SDS011;21609;49.298;6.844;2022-11-04T06:04:37;0.80;;;0.70;;
35496;SDS011;21609;49.298;6.844;2022-11-04T06:07:03;0.90;;;0.50;;
35496;SDS011;21609;49.298;6.844;2022-11-04T06:09:28;1.33;;;0.50;;
35496;SDS011;21609;49.298;6.844;2022-11-04T06:12:10;1.15;;;0.90;;
35496;SDS011;21609;49.298;6.844;2022-11-04T06:14:39;0.70;;;0.70;;
35496;SDS011;21609;49.298;6.844;2022-11-04T06:17:10;0.70;;;0.60;;
35496;SDS011;21609;49.298;6.844;2022-11-04T06:19:39;0.60;;;0.60;;
35496;SDS011;21609;49.298;6.844;2022-11-04T06:22:05;0.40;;;0.40;;
35496;SDS011;21609;49.298;6.844;2022-11-04T06:24:30;1.00;;;0.77;;
35496;SDS011;21609;49.298;6.844;2022-11-04T06:26:56;1.00;;;0.80;;
35496;SDS011;21609;49.298;6.844;2022-11-04T06:29:21;2.10;;;0.80;;
35496;SDS011;21609;49.298;6.844;2022-11-04T06:31:47;1.20;;;0.55;;
35496;SDS011;21609;49.298;6.844;2022-11-04T06:34:12;1.05;;;0.73;;
35496;SDS011;21609;49.298;6.844;2022-11-04T06:36:38;2.50;;;0.70;;
35496;SDS011;21609;49.298;6.844;2022-11-04T06:39:03;0.70;;;0.70;;
35496;SDS011;21609;49.298;6.844;2022-11-04T06:41:29;2.10;;;0.90;;
35496;SDS011;21609;49.298;6.844;2022-11-04T06:43:55;1.08;;;0.70;;
35496;SDS011;21609;49.298;6.844;2022-11-04T06:46:25;3.08;;;0.68;;
35496;SDS011;21609;49.298;6.844;2022-11-04T06:48:51;0.73;;;0.70;;
35496;SDS011;21609;49.298;6.844;2022-11-04T06:51:16;0.68;;;0.60;;
35496;SDS011;21609;49.298;6.844;2022-11-04T06:53:42;1.67;;;0.85;;
35496;SDS011;21609;49.298;6.844;2022-11-04T06:56:08;0.80;;;0.70;;
35496;SDS011;21609;49.298;6.844;2022-11-04T06:58:34;0.80;;;0.65;;
35496;SDS011;21609;49.298;6.844;2022-11-04T07:00:59;1.35;;;0.95;;
35496;SDS011;21609;49.298;6.844;2022-11-04T07:03:25;2.22;;;0.73;;
35496;SDS011;21609;49.298;6.844;2022-11-04T07:05:51;0.70;;;0.50;;
35496;SDS011;21609;49.298;6.844;2022-11-04T07:08:17;1.42;;;0.98;;
35496;SDS011;21609;49.298;6.844;2022-11-04T07:10:42;0.70;;;0.60;;
35496;SDS011;21609;49.298;6.844;2022-11-04T07:13:08;5.90;;;0.80;;
35496;SDS011;21609;49.298;6.844;2022-11-04T07:15:34;1.77;;;0.93;;
35496;SDS011;21609;49.298;6.844;2022-11-04T07:18:01;2.40;;;1.10;;
35496;SDS011;21609;49.298;6.844;2022-11-04T07:20:27;2.40;;;0.82;;
35496;SDS011;21609;49.298;6.844;2022-11-04T07:22:53;2.05;;;0.60;;
35496;SDS011;21609;49.298;6.844;2022-11-04T07:25:18;2.10;;;0.85;;
35496;SDS011;21609;49.298;6.844;2022-11-04T07:27:44;6.22;;;1.10;;
35496;SDS011;21609;49.298;6.844;2022-11-04T07:30:10;1.38;;;1.00;;
35496;SDS011;21609;49.298;6.844;2022-11-04T07:32:36;1.35;;;0.80;;
35496;SDS011;21609;49.298;6.844;2022-11-04T07:35:01;1.13;;;0.80;;
35496;SDS011;21609;49.298;6.844;2022-11-04T07:37:27;1.95;;;1.00;;
35496;SDS011;21609;49.298;6.844;2022-11-04T07:39:53;0.93;;;0.70;;
35496;SDS011;21609;49.298;6.844;2022-11-04T07:42:18;1.83;;;0.77;;
35496;SDS011;21609;49.298;6.844;2022-11-04T07:44:45;1.88;;;0.75;;
35496;SDS011;21609;49.298;6.844;2022-11-04T07:47:11;2.85;;;0.93;;
35496;SDS011;21609;49.298;6.844;2022-11-04T07:49:37;7.70;;;1.00;;
35496;SDS011;21609;49.298;6.844;2022-11-04T07:52:02;4.65;;;1.35;;
35496;SDS011;21609;49.298;6.844;2022-11-04T07:54:28;3.83;;;0.80;;
35496;SDS011;21609;49.298;6.844;2022-11-04T07:56:54;1.38;;;0.70;;
35496;SDS011;21609;49.298;6.844;2022-11-04T07:59:19;2.05;;;1.40;;
35496;SDS011;21609;49.298;6.844;2022-11-04T08:01:45;1.42;;;0.80;;
35496;SDS011;21609;49.298;6.844;2022-11-04T08:04:10;2.55;;;1.00;;
35496;SDS011;21609;49.298;6.844;2022-11-04T08:06:36;1.88;;;1.27;;
35496;SDS011;21609;49.298;6.844;2022-11-04T08:09:01;1.83;;;0.80;;
35496;SDS011;21609;49.298;6.844;2022-11-04T08:11:27;1.17;;;0.95;;
35496;SDS011;21609;49.298;6.844;2022-11-04T08:13:53;1.13;;;0.90;;
35496;SDS011;21609;49.298;6.844;2022-11-04T08:16:20;3.47;;;1.25;;
35496;SDS011;21609;49.298;6.844;2022-11-04T08:18:47;1.25;;;0.75;;
35496;SDS011;21609;49.298;6.844;2022-11-04T08:21:15;1.45;;;0.85;;
35496;SDS011;21609;49.298;6.844;2022-11-04T08:23:41;2.58;;;1.00;;
35496;SDS011;21609;49.298;6.844;2022-11-04T08:26:10;3.13;;;1.02;;
35496;SDS011;21609;49.298;6.844;2022-11-04T08:28:38;1.55;;;0.80;;
35496;SDS011;21609;49.298;6.844;2022-11-04T08:31:06;1.17;;;1.08;;
35496;SDS011;21609;49.298;6.844;2022-11-04T08:33:33;1.38;;;1.02;;
35496;SDS011;21609;49.298;6.844;2022-11-04T08:36:04;3.03;;;1.13;;
35496;SDS011;21609;49.298;6.844;2022-11-04T08:38:31;1.52;;;0.90;;
35496;SDS011;21609;49.298;6.844;2022-11-04T08:40:58;1.52;;;0.77;;
35496;SDS011;21609;49.298;6.844;2022-11-04T08:43:25;0.85;;;0.80;;
35496;SDS011;21609;49.298;6.844;2022-11-04T08:45:51;1.05;;;0.68;;
35496;SDS011;21609;49.298;6.844;2022-11-04T08:48:17;1.65;;;1.00;;
35496;SDS011;21609;49.298;6.844;2022-11-04T08:50:42;2.50;;;0.95;;
35496;SDS011;21609;49.298;6.844;2022-11-04T08:53:12;1.57;;;0.90;;
35496;SDS011;21609;49.298;6.844;2022-11-04T08:55:37;2.90;;;1.27;;
35496;SDS011;21609;49.298;6.844;2022-11-04T08:58:03;3.65;;;1.08;;
35496;SDS011;21609;49.298;6.844;2022-11-04T09:00:29;1.40;;;1.10;;
35496;SDS011;21609;49.298;6.844;2022-11-04T09:02:56;2.97;;;1.60;;
35496;SDS011;21609;49.298;6.844;2022-11-04T09:05:23;2.45;;;1.30;;
35496;SDS011;21609;49.298;6.844;2022-11-04T09:07:49;10.32;;;1.63;;
35496;SDS011;21609;49.298;6.844;2022-11-04T09:10:15;4.80;;;1.38;;
35496;SDS011;21609;49.298;6.844;2022-11-04T09:12:41;3.95;;;0.98;;
35496;SDS011;21609;49.298;6.844;2022-11-04T09:15:07;2.83;;;1.10;;
35496;SDS011;21609;49.298;6.844;2022-11-04T09:17:33;4.55;;;1.08;;
35496;SDS011;21609;49.298;6.844;2022-11-04T09:19:59;4.13;;;0.98;;
35496;SDS011;21609;49.298;6.844;2022-11-04T09:22:24;4.60;;;1.05;;
35496;SDS011;21609;49.298;6.844;2022-11-04T09:24:50;5.18;;;1.45;;
35496;SDS011;21609;49.298;6.844;2022-11-04T09:27:15;4.03;;;1.33;;
35496;SDS011;21609;49.298;6.844;2022-11-04T09:29:41;1.88;;;1.02;;
35496;SDS011;21609;49.298;6.844;2022-11-04T09:32:07;3.88;;;1.10;;
35496;SDS011;21609;49.298;6.844;2022-11-04T09:34:32;5.07;;;1.30;;
35496;SDS011;21609;49.298;6.844;2022-11-04T09:36:58;1.90;;;0.90;;
35496;SDS011;21609;49.298;6.844;2022-11-04T09:39:24;2.95;;;1.23;;
35496;SDS011;21609;49.298;6.844;2022-11-04T09:47:22;5.00;;;1.30;;
35496;SDS011;21609;49.298;6.844;2022-11-04T09:49:50;2.15;;;1.02;;
35496;SDS011;21609;49.298;6.844;2022-11-04T09:52:25;2.22;;;1.00;;
35496;SDS011;21609;49.298;6.844;2022-11-04T09:57:24;4.40;;;1.70;;
35496;SDS011;21609;49.298;6.844;2022-11-04T09:59:50;2.20;;;0.90;;
35496;SDS011;21609;49.298;6.844;2022-11-04T10:02:24;1.15;;;0.98;;
35496;SDS011;21609;49.298;6.844;2022-11-04T10:07:53;1.50;;;1.38;;
35496;SDS011;21609;49.298;6.844;2022-11-04T10:19:21;1.70;;;0.90;;
35496;SDS011;21609;49.298;6.844;2022-11-04T10:22:01;1.88;;;1.17;;
35496;SDS011;21609;49.298;6.844;2022-11-04T10:24:40;1.00;;;0.93;;
35496;SDS011;21609;49.298;6.844;2022-11-04T10:27:18;2.13;;;1.17;;
35496;SDS011;21609;49.298;6.844;2022-11-04T10:29:50;1.48;;;0.90;;
35496;SDS011;21609;49.298;6.844;2022-11-04T10:34:51;4.80;;;1.10;;
35496;SDS011;21609;49.298;6.844;2022-11-04T10:37:41;4.22;;;1.30;;
35496;SDS011;21609;49.298;6.844;2022-11-04T10:40:15;1.77;;;1.10;;
35496;SDS011;21609;49.298;6.844;2022-11-04T10:42:42;2.13;;;1.00;;
35496;SDS011;21609;49.298;6.844;2022-11-04T10:45:10;2.65;;;1.02;;
35496;SDS011;21609;49.298;6.844;2022-11-04T10:53:19;2.45;;;1.20;;
35496;SDS011;21609;49.298;6.844;2022-11-04T10:58:44;4.00;;;1.20;;
35496;SDS011;21609;49.298;6.844;2022-11-04T11:01:21;3.20;;;1.27;;
35496;SDS011;21609;49.298;6.844;2022-11-04T11:03:53;1.45;;;0.93;;
35496;SDS011;21609;49.298;6.844;2022-11-04T11:06:28;1.52;;;0.95;;
35496;SDS011;21609;49.298;6.844;2022-11-04T11:08:56;2.42;;;1.33;;
35496;SDS011;21609;49.298;6.844;2022-11-04T11:11:42;1.38;;;1.10;;
35496;SDS011;21609;49.298;6.844;2022-11-04T11:14:44;1.92;;;1.08;;
35496;SDS011;21609;49.298;6.844;2022-11-04T11:22:40;3.72;;;1.45;;
35496;SDS011;21609;49.298;6.844;2022-11-04T11:28:27;2.95;;;1.75;;
35496;SDS011;21609;49.298;6.844;2022-11-04T11:30:36;3.28;;;1.60;;
35496;SDS011;21609;49.298;6.844;2022-11-04T11:33:15;1.60;;;1.50;;
35496;SDS011;21609;49.298;6.844;2022-11-04T11:36:26;2.95;;;1.70;;
35496;SDS011;21609;49.298;6.844;2022-11-04T11:41:30;2.80;;;1.70;;
35496;SDS011;21609;49.298;6.844;2022-11-04T11:47:21;4.47;;;2.83;;
35496;SDS011;21609;49.298;6.844;2022-11-04T11:52:43;5.95;;;3.40;;
35496;SDS011;21609;49.298;6.844;2022-11-04T11:55:21;5.60;;;3.08;;
35496;SDS011;21609;49.298;6.844;2022-11-04T12:01:21;5.03;;;3.47;;
35496;SDS011;21609;49.298;6.844;2022-11-04T12:03:54;11.52;;;3.40;;
35496;SDS011;21609;49.298;6.844;2022-11-04T12:06:26;7.18;;;3.65;;
35496;SDS011;21609;49.298;6.844;2022-11-04T12:12:04;8.30;;;3.33;;
35496;SDS011;21609;49.298;6.844;2022-11-04T12:25:46;4.85;;;3.33;;
35496;SDS011;21609;49.298;6.844;2022-11-04T12:37:08;7.18;;;3.47;;
35496;SDS011;21609;49.298;6.844;2022-11-04T12:40:11;6.65;;;3.45;;
35496;SDS011;21609;49.298;6.844;2022-11-04T12:42:49;5.78;;;3.33;;
35496;SDS011;21609;49.298;6.844;2022-11-04T12:48:29;5.35;;;3.00;;
35496;SDS011;21609;49.298;6.844;2022-11-04T12:51:30;5.47;;;3.20;;
35496;SDS011;21609;49.298;6.844;2022-11-04T12:56:35;4.53;;;2.83;;
35496;SDS011;21609;49.298;6.844;2022-11-04T13:04:49;6.00;;;3.20;;
35496;SDS011;21609;49.298;6.844;2022-11-04T13:07:18;5.45;;;2.92;;
35496;SDS011;21609;49.298;6.844;2022-11-04T13:09:57;6.90;;;2.67;;
35496;SDS011;21609;49.298;6.844;2022-11-04T13:12:29;5.43;;;3.17;;
35496;SDS011;21609;49.298;6.844;2022-11-04T13:15:11;4.43;;;2.40;;
35496;SDS011;21609;49.298;6.844;2022-11-04T13:17:42;6.50;;;3.17;;
35496;SDS011;21609;49.298;6.844;2022-11-04T13:22:40;6.50;;;3.95;;
35496;SDS011;21609;49.298;6.844;2022-11-04T13:25:24;4.05;;;3.13;;
35496;SDS011;21609;49.298;6.844;2022-11-04T13:27:54;5.43;;;3.15;;
35496;SDS011;21609;49.298;6.844;2022-11-04T13:30:24;4.10;;;3.40;;
35496;SDS011;21609;49.298;6.844;2022-11-04T13:36:27;3.67;;;2.78;;
35496;SDS011;21609;49.298;6.844;2022-11-04T13:39:04;6.25;;;3.03;;
35496;SDS011;21609;49.298;6.844;2022-11-04T13:44:29;5.40;;;2.95;;
35496;SDS011;21609;49.298;6.844;2022-11-04T13:47:02;5.05;;;2.80;;
35496;SDS011;21609;49.298;6.844;2022-11-04T13:49:30;6.47;;;2.92;;
35496;SDS011;21609;49.298;6.844;2022-11-04T13:52:13;8.77;;;2.65;;
35496;SDS011;21609;49.298;6.844;2022-11-04T13:54:42;5.32;;;2.60;;
35496;SDS011;21609;49.298;6.844;2022-11-04T13:57:18;6.15;;;2.60;;
35496;SDS011;21609;49.298;6.844;2022-11-04T14:11:10;4.90;;;2.22;;
35496;SDS011;21609;49.298;6.844;2022-11-04T14:16:06;6.68;;;2.63;;
35496;SDS011;21609;49.298;6.844;2022-11-04T14:18:39;4.45;;;2.28;;
35496;SDS011;21609;49.298;6.844;2022-11-04T14:21:07;8.27;;;2.53;;
35496;SDS011;21609;49.298;6.844;2022-11-04T14:23:41;4.25;;;2.30;;
35496;SDS011;21609;49.298;6.844;2022-11-04T14:26:10;3.78;;;2.25;;
35496;SDS011;21609;49.298;6.844;2022-11-04T14:28:37;3.88;;;2.00;;
35496;SDS011;21609;49.298;6.844;2022-11-04T14:31:07;4.75;;;2.17;;
35496;SDS011;21609;49.298;6.844;2022-11-04T14:33:35;2.58;;;1.77;;
35496;SDS011;21609;49.298;6.844;2022-11-04T14:44:14;4.10;;;2.47;;
35496;SDS011;21609;49.298;6.844;2022-11-04T14:46:43;4.82;;;2.10;;
35496;SDS011;21609;49.298;6.844;2022-11-04T14:49:24;2.92;;;2.17;;
35496;SDS011;21609;49.298;6.844;2022-11-04T14:54:43;3.40;;;2.22;;
35496;SDS011;21609;49.298;6.844;2022-11-04T14:59:39;4.45;;;2.30;;
35496;SDS011;21609;49.298;6.844;2022-11-04T15:02:07;4.72;;;2.40;;
35496;SDS011;21609;49.298;6.844;2022-11-04T15:04:47;6.15;;;2.40;;
35496;SDS011;21609;49.298;6.844;2022-11-04T15:09:59;2.42;;;2.20;;
35496;SDS011;21609;49.298;6.844;2022-11-04T15:12:27;4.63;;;2.60;;
35496;SDS011;21609;49.298;6.844;2022-11-04T15:18:04;4.32;;;2.47;;
35496;SDS011;21609;49.298;6.844;2022-11-04T15:20:45;4.10;;;2.50;;
35496;SDS011;21609;49.298;6.844;2022-11-04T15:23:15;2.33;;;1.85;;
35496;SDS011;21609;49.298;6.844;2022-11-04T15:25:47;6.25;;;2.40;;
35496;SDS011;21609;49.298;6.844;2022-11-04T15:28:18;3.05;;;1.95;;
35496;SDS011;21609;49.298;6.844;2022-11-04T15:31:02;5.00;;;2.08;;
35496;SDS011;21609;49.298;6.844;2022-11-04T15:33:27;4.10;;;2.20;;
35496;SDS011;21609;49.298;6.844;2022-11-04T15:35:55;6.28;;;1.95;;
35496;SDS011;21609;49.298;6.844;2022-11-04T15:38:22;3.28;;;2.28;;
35496;SDS011;21609;49.298;6.844;2022-11-04T15:40:50;4.13;;;2.10;;
35496;SDS011;21609;49.298;6.844;2022-11-04T15:43:16;2.72;;;2.47;;
35496;SDS011;21609;49.298;6.844;2022-11-04T15:48:30;3.53;;;2.28;;
35496;SDS011;21609;49.298;6.844;2022-11-04T15:51:09;2.92;;;2.00;;
35496;SDS011;21609;49.298;6.844;2022-11-04T15:54:15;2.13;;;1.40;;
35496;SDS011;21609;49.298;6.844;2022-11-04T15:56:44;3.25;;;2.05;;
35496;SDS011;21609;49.298;6.844;2022-11-04T15:59:15;2.67;;;1.85;;
35496;SDS011;21609;49.298;6.844;2022-11-04T16:01:48;2.22;;;1.88;;
35496;SDS011;21609;49.298;6.844;2022-11-04T16:04:16;3.70;;;1.90;;
35496;SDS011;21609;49.298;6.844;2022-11-04T16:06:44;2.25;;;1.80;;
35496;SDS011;21609;49.298;6.844;2022-11-04T16:09:25;3.13;;;1.80;;
35496;SDS011;21609;49.298;6.844;2022-11-04T16:12:13;4.72;;;2.28;;
35496;SDS011;21609;49.298;6.844;2022-11-04T16:14:45;2.72;;;1.63;;
35496;SDS011;21609;49.298;6.844;2022-11-04T16:17:16;4.88;;;1.98;;
35496;SDS011;21609;49.298;6.844;2022-11-04T16:19:52;2.00;;;1.77;;
35496;SDS011;21609;49.298;6.844;2022-11-04T16:22:28;2.25;;;1.98;;
35496;SDS011;21609;49.298;6.844;2022-11-04T16:24:59;3.10;;;1.55;;
35496;SDS011;21609;49.298;6.844;2022-11-04T16:27:29;2.05;;;1.85;;
35496;SDS011;21609;49.298;6.844;2022-11-04T16:32:46;4.70;;;2.35;;
35496;SDS011;21609;49.298;6.844;2022-11-04T16:35:15;3.03;;;1.50;;
35496;SDS011;21609;49.298;6.844;2022-11-04T16:37:46;3.13;;;1.70;;
35496;SDS011;21609;49.298;6.844;2022-11-04T16:40:12;1.60;;;1.50;;
35496;SDS011;21609;49.298;6.844;2022-11-04T16:42:39;2.75;;;1.60;;
35496;SDS011;21609;49.298;6.844;2022-11-04T16:45:05;3.10;;;1.42;;
35496;SDS011;21609;49.298;6.844;2022-11-04T16:47:34;2.72;;;1.80;;
35496;SDS011;21609;49.298;6.844;2022-11-04T16:50:05;1.77;;;1.45;;
35496;SDS011;21609;49.298;6.844;2022-11-04T16:52:38;1.77;;;1.45;;
35496;SDS011;21609;49.298;6.844;2022-11-04T16:55:04;2.80;;;1.90;;
35496;SDS011;21609;49.298;6.844;2022-11-04T16:57:30;8.32;;;1.55;;
35496;SDS011;21609;49.298;6.844;2022-11-04T16:59:56;2.00;;;1.60;;
35496;SDS011;21609;49.298;6.844;2022-11-04T17:04:51;2.90;;;1.93;;
35496;SDS011;21609;49.298;6.844;2022-11-04T17:07:17;3.45;;;1.67;;
35496;SDS011;21609;49.298;6.844;2022-11-04T17:09:42;3.70;;;1.80;;
35496;SDS011;21609;49.298;6.844;2022-11-04T17:12:08;2.72;;;1.83;;
35496;SDS011;21609;49.298;6.844;2022-11-04T17:14:34;1.88;;;1.60;;
35496;SDS011;21609;49.298;6.844;2022-11-04T17:17:00;2.83;;;1.77;;
35496;SDS011;21609;49.298;6.844;2022-11-04T17:19:27;4.25;;;2.00;;
35496;SDS011;21609;49.298;6.844;2022-11-04T17:21:53;3.90;;;1.77;;
35496;SDS011;21609;49.298;6.844;2022-11-04T17:24:19;2.88;;;1.90;;
35496;SDS011;21609;49.298;6.844;2022-11-04T17:26:45;2.67;;;1.75;;
35496;SDS011;21609;49.298;6.844;2022-11-04T17:29:10;2.25;;;1.63;;
35496;SDS011;21609;49.298;6.844;2022-11-04T17:31:36;3.05;;;1.58;;
35496;SDS011;21609;49.298;6.844;2022-11-04T17:34:02;3.72;;;1.70;;
35496;SDS011;21609;49.298;6.844;2022-11-04T17:36:27;3.15;;;2.17;;
35496;SDS011;21609;49.298;6.844;2022-11-04T17:38:54;1.55;;;1.45;;
35496;SDS011;21609;49.298;6.844;2022-11-04T17:41:20;2.10;;;1.90;;
35496;SDS011;21609;49.298;6.844;2022-11-04T17:44:05;4.32;;;1.90;;
35496;SDS011;21609;49.298;6.844;2022-11-04T17:46:32;3.47;;;1.45;;
35496;SDS011;21609;49.298;6.844;2022-11-04T17:48:58;2.33;;;1.55;;
35496;SDS011;21609;49.298;6.844;2022-11-04T17:51:45;6.55;;;1.67;;
35496;SDS011;21609;49.298;6.844;2022-11-04T17:54:13;3.45;;;2.25;;
35496;SDS011;21609;49.298;6.844;2022-11-04T17:56:39;2.95;;;1.50;;
35496;SDS011;21609;49.298;6.844;2022-11-04T17:59:05;8.38;;;2.22;;
35496;SDS011;21609;49.298;6.844;2022-11-04T18:01:32;3.35;;;1.70;;
35496;SDS011;21609;49.298;6.844;2022-11-04T18:03:59;4.63;;;1.88;;
35496;SDS011;21609;49.298;6.844;2022-11-04T18:06:25;2.55;;;1.63;;
35496;SDS011;21609;49.298;6.844;2022-11-04T18:08:56;2.50;;;1.60;;
35496;SDS011;21609;49.298;6.844;2022-11-04T18:11:23;3.75;;;2.10;;